Time;durP1;ratioP1;P1;durP2;ratioP2;P2;SDS_P1;SDS_P2;PMS_P1;PMS_P2;Temp;Humidity;BMP_temperature;BMP_pressure;BME280_temperature;BME280_humidity;BME280_pressure;Samples;Min_cycle;Max_cycle;Signal;HPM_P1;HPM_P2
2022/10/17 00:00:48;;;;;;;0.65;0.65;;;;;;;3.52;69.67;100453.69;6125121;23;20097;-87
2022/10/17 00:03:15;;;;;;;0.80;0.80;;;;;;;3.44;69.61;100448.31;6098721;23;20323;-86
2022/10/17 00:05:44;;;;;;;0.70;0.70;;;;;;;3.48;69.69;100445.16;6098889;23;20473;-87
2022/10/17 00:08:15;;;;;;;0.80;0.80;;;;;;;3.47;70.00;100453.34;6124727;23;20022;-86
2022/10/17 00:10:42;;;;;;;0.70;0.70;;;;;;;3.45;70.00;100453.50;6124590;23;20028;-88
2022/10/17 00:13:10;;;;;;;0.70;0.70;;;;;;;3.41;69.87;100438.78;6124706;23;20029;-88
2022/10/17 00:15:37;;;;;;;0.70;0.70;;;;;;;3.41;70.27;100448.63;6125627;23;20100;-87
2022/10/17 00:18:06;;;;;;;0.68;0.68;;;;;;;3.41;69.96;100446.81;6136413;23;20394;-87
2022/10/17 00:20:36;;;;;;;0.60;0.60;;;;;;;3.40;70.16;100442.47;6132142;23;20026;-87
2022/10/17 00:23:03;;;;;;;0.70;0.70;;;;;;;3.35;70.28;100439.47;6125270;23;20339;-87
2022/10/17 00:25:30;;;;;;;0.70;0.70;;;;;;;3.40;70.29;100431.78;6125390;23;20026;-86
2022/10/17 00:27:57;;;;;;;0.73;0.73;;;;;;;3.37;70.32;100434.81;6099100;23;20032;-87
2022/10/17 00:30:24;;;;;;;0.70;0.70;;;;;;;3.39;70.37;100434.63;6126975;23;20018;-87
2022/10/17 00:32:53;;;;;;;0.70;0.70;;;;;;;3.38;70.37;100432.97;6130686;23;20026;-86
2022/10/17 00:35:20;;;;;;;0.70;0.70;;;;;;;3.45;70.24;100424.13;6105548;23;20315;-87
2022/10/17 00:37:47;;;;;;;0.57;0.57;;;;;;;3.44;70.14;100405.59;6104462;23;20052;-87
2022/10/17 00:40:14;;;;;;;0.80;0.80;;;;;;;3.42;70.07;100397.78;6129257;23;20029;-87
2022/10/17 00:42:41;;;;;;;0.60;0.60;;;;;;;3.41;70.24;100412.09;6124402;23;20168;-86
2022/10/17 00:45:23;;;;;;;0.70;0.70;;;;;;;3.35;70.44;100407.44;6124698;23;20115;-86
2022/10/17 00:47:55;;;;;;;0.80;0.80;;;;;;;3.35;70.40;100390.59;6124604;23;20445;-85
2022/10/17 00:50:27;;;;;;;0.80;0.80;;;;;;;3.36;70.28;100393.06;6076006;23;20076;-87
2022/10/17 00:52:58;;;;;;;0.70;0.70;;;;;;;3.35;70.44;100404.75;6098685;23;20073;-87
2022/10/17 00:55:28;;;;;;;0.77;0.77;;;;;;;3.29;70.66;100396.56;6098977;23;20402;-86
2022/10/17 00:58:02;;;;;;;0.60;0.60;;;;;;;3.29;70.88;100399.22;6098714;23;20025;-86
2022/10/17 01:00:30;;;;;;;0.70;0.70;;;;;;;3.28;70.78;100393.06;6124798;23;20025;-86
2022/10/17 01:02:59;;;;;;;0.70;0.70;;;;;;;3.25;70.94;100388.06;6098807;23;20022;-87
2022/10/17 01:05:27;;;;;;;0.73;0.73;;;;;;;3.19;70.99;100381.56;6124272;23;20030;-87
2022/10/17 01:07:54;;;;;;;0.70;0.70;;;;;;;3.19;71.12;100370.03;6098675;23;20499;-87
2022/10/17 01:10:40;;;;;;;0.70;0.70;;;;;;;3.11;71.44;100378.00;6098444;23;20049;-87
2022/10/17 01:13:14;;;;;;;0.80;0.80;;;;;;;3.08;71.62;100367.69;6073966;23;20033;-87
2022/10/17 01:16:04;;;;;;;0.80;0.80;;;;;;;3.04;71.82;100373.34;6098252;23;20142;-87
2022/10/17 01:18:40;;;;;;;0.70;0.70;;;;;;;3.03;72.00;100371.66;6090541;23;20030;-87
2022/10/17 01:21:46;;;;;;;0.60;0.60;;;;;;;3.04;72.04;100367.19;6074127;23;20025;-87
2022/10/17 01:24:58;;;;;;;0.70;0.70;;;;;;;2.99;72.33;100365.00;6104933;23;20454;-86
2022/10/17 01:27:43;;;;;;;0.70;0.70;;;;;;;2.94;72.25;100359.31;6038255;23;20055;-84
2022/10/17 01:30:22;;;;;;;0.80;0.80;;;;;;;2.94;72.33;100351.31;6039008;23;20053;-85
2022/10/17 01:32:55;;;;;;;0.50;0.50;;;;;;;2.89;72.54;100337.63;6062837;23;20046;-86
2022/10/17 01:35:33;;;;;;;0.60;0.60;;;;;;;2.87;72.86;100344.94;6039202;23;20533;-87
2022/10/17 01:38:12;;;;;;;0.70;0.70;;;;;;;2.86;72.81;100337.97;6039374;23;20030;-87
2022/10/17 01:40:52;;;;;;;0.80;0.80;;;;;;;2.79;72.79;100320.94;6039058;23;20027;-86
2022/10/17 01:43:39;;;;;;;0.70;0.70;;;;;;;2.77;73.07;100321.09;6038912;23;20087;-86
2022/10/17 01:46:20;;;;;;;0.80;0.80;;;;;;;2.82;73.15;100323.28;6062701;23;20033;-86
2022/10/17 01:48:47;;;;;;;0.70;0.70;;;;;;;2.79;73.25;100313.75;6039303;23;20082;-86
2022/10/17 01:51:19;;;;;;;0.70;0.70;;;;;;;2.76;73.29;100321.22;6063074;23;20059;-85
2022/10/17 01:54:16;;;;;;;0.80;0.80;;;;;;;2.79;73.33;100321.75;6038333;23;20043;-87
2022/10/17 01:56:45;;;;;;;0.80;0.80;;;;;;;2.73;73.51;100317.06;6062997;23;20109;-86
2022/10/17 01:59:41;;;;;;;0.70;0.70;;;;;;;2.74;73.61;100304.59;6039182;23;20027;-87
2022/10/17 02:02:10;;;;;;;0.60;0.60;;;;;;;2.67;73.71;100296.38;6057335;23;20365;-86
2022/10/17 02:04:37;;;;;;;0.65;0.65;;;;;;;2.73;73.81;100314.38;6123676;23;20037;-86
2022/10/17 02:07:08;;;;;;;0.80;0.80;;;;;;;2.77;73.61;100306.94;6123405;23;20033;-86
2022/10/17 02:09:39;;;;;;;0.80;0.80;;;;;;;2.76;73.77;100307.91;6097742;23;20524;-86
2022/10/17 02:12:06;;;;;;;0.70;0.70;;;;;;;2.74;73.85;100294.75;6097080;23;20060;-86
2022/10/17 02:14:54;;;;;;;0.80;0.80;;;;;;;2.73;73.78;100295.72;6097983;23;20025;-86
2022/10/17 02:17:25;;;;;;;0.70;0.70;;;;;;;2.68;73.94;100305.22;6073814;23;20026;-86
2022/10/17 02:20:14;;;;;;;0.70;0.70;;;;;;;2.67;73.95;100319.56;6097499;23;20038;-87
2022/10/17 02:22:47;;;;;;;0.80;0.80;;;;;;;2.69;73.94;100312.25;6097793;23;20470;-88
2022/10/17 02:25:35;;;;;;;0.70;0.70;;;;;;;2.66;74.14;100309.88;6124576;23;20022;-88
2022/10/17 02:28:05;;;;;;;0.70;0.70;;;;;;;2.62;74.39;100298.72;6100684;23;20022;-89
2022/10/17 02:30:52;;;;;;;0.68;0.68;;;;;;;2.60;74.34;100304.19;6141107;23;20108;-87
2022/10/17 02:33:35;;;;;;;0.70;0.70;;;;;;;2.66;74.35;100307.19;6096142;23;20026;-87
2022/10/17 02:36:06;;;;;;;0.70;0.70;;;;;;;2.63;74.47;100305.69;6095695;23;20096;-87
2022/10/17 02:38:34;;;;;;;0.65;0.65;;;;;;;2.61;74.48;100307.72;6097528;23;20022;-87
2022/10/17 02:41:06;;;;;;;0.70;0.70;;;;;;;2.58;74.46;100303.53;6095343;23;20040;-86
2022/10/17 02:43:34;;;;;;;0.70;0.70;;;;;;;2.60;74.59;100300.69;6093955;23;20483;-85
2022/10/17 02:46:06;;;;;;;0.60;0.60;;;;;;;2.63;74.69;100308.34;6072764;23;20441;-88
2022/10/17 02:48:39;;;;;;;0.70;0.70;;;;;;;2.65;74.76;100300.22;6123544;23;20050;-86
2022/10/17 02:51:11;;;;;;;0.70;0.70;;;;;;;2.59;74.74;100294.53;6048641;23;20112;-87
2022/10/17 02:54:16;;;;;;;0.70;0.70;;;;;;;2.60;74.85;100287.38;6096927;23;20034;-87
2022/10/17 02:56:49;;;;;;;0.70;0.70;;;;;;;2.51;74.98;100291.00;6097326;23;20474;-87
2022/10/17 02:59:20;;;;;;;0.80;0.80;;;;;;;2.47;74.90;100282.50;6051404;23;20110;-86
2022/10/17 03:01:51;;;;;;;0.70;0.70;;;;;;;2.40;75.29;100278.78;6099355;23;20029;-87
2022/10/17 03:04:18;;;;;;;0.77;0.77;;;;;;;2.42;75.33;100282.13;6099472;23;20026;-89
2022/10/17 03:06:48;;;;;;;0.70;0.70;;;;;;;2.40;75.57;100273.47;6124984;23;20477;-87
2022/10/17 03:09:17;;;;;;;0.65;0.65;;;;;;;2.37;75.48;100282.63;6074644;23;20033;-88
2022/10/17 03:11:44;;;;;;;0.70;0.70;;;;;;;2.34;75.64;100271.47;6126017;23;20041;-87
2022/10/17 03:14:11;;;;;;;0.80;0.80;;;;;;;2.38;75.72;100275.44;6126731;23;20022;-88
2022/10/17 03:16:40;;;;;;;0.70;0.70;;;;;;;2.37;75.57;100273.78;6106036;23;20044;-86
2022/10/17 03:19:07;;;;;;;0.70;0.70;;;;;;;2.36;75.74;100272.13;6134581;23;20117;-86
2022/10/17 03:21:37;;;;;;;0.70;0.70;;;;;;;2.36;75.81;100264.13;6109244;23;20021;-88
2022/10/17 03:24:07;;;;;;;0.75;0.75;;;;;;;2.34;75.86;100253.63;6133332;23;20090;-86
2022/10/17 03:26:37;;;;;;;0.68;0.68;;;;;;;2.30;75.89;100252.28;6102172;23;20026;-94
2022/10/17 03:29:05;;;;;;;0.80;0.80;;;;;;;2.30;75.90;100241.63;6112301;23;20450;-91
2022/10/17 03:31:58;;;;;;;0.70;0.70;;;;;;;2.37;76.05;100239.16;6132409;23;20073;-92
2022/10/17 03:34:26;;;;;;;0.82;0.82;;;;;;;2.35;75.81;100238.47;6128940;23;20021;-92
2022/10/17 03:36:56;;;;;;;0.70;0.70;;;;;;;2.36;75.93;100230.34;6102734;23;20022;-89
2022/10/17 03:39:26;;;;;;;0.80;0.80;;;;;;;2.37;75.66;100225.84;6100144;23;20022;-87
2022/10/17 03:41:53;;;;;;;0.75;0.75;;;;;;;2.39;75.92;100229.19;6099346;23;20105;-88
2022/10/17 03:44:20;;;;;;;0.70;0.70;;;;;;;2.38;75.99;100222.16;6076328;23;20577;-92
2022/10/17 03:46:48;;;;;;;0.70;0.70;;;;;;;2.37;75.89;100199.19;6105615;23;20058;-90
2022/10/17 03:49:15;;;;;;;0.63;0.63;;;;;;;2.40;75.84;100212.19;6102288;23;20587;-89
2022/10/17 03:51:42;;;;;;;0.80;0.80;;;;;;;2.41;75.95;100218.38;6101503;23;20021;-87
2022/10/17 03:54:13;;;;;;;0.80;0.80;;;;;;;2.42;75.82;100218.19;6076627;23;20057;-88
2022/10/17 03:56:40;;;;;;;0.90;0.90;;;;;;;2.46;75.74;100216.06;6098802;23;20030;-89
2022/10/17 03:59:13;;;;;;;0.80;0.80;;;;;;;2.47;75.83;100207.06;6097122;23;20053;-88
2022/10/17 04:01:43;;;;;;;0.75;0.75;;;;;;;2.48;75.71;100211.38;6099961;23;20022;-90
2022/10/17 04:04:11;;;;;;;0.80;0.80;;;;;;;2.50;75.83;100209.38;6103090;23;20022;-89
2022/10/17 04:06:38;;;;;;;0.70;0.70;;;;;;;2.51;75.82;100206.56;6079266;23;20053;-89
2022/10/17 04:09:06;;;;;;;0.80;0.80;;;;;;;2.54;75.57;100205.41;6101385;23;20050;-84
2022/10/17 04:11:56;;;;;;;0.70;0.70;;;;;;;2.57;75.55;100197.91;6102362;23;20428;-87
2022/10/17 04:14:24;;;;;;;0.80;0.80;;;;;;;2.61;75.26;100187.78;6098794;23;20045;-85
2022/10/17 04:16:52;;;;;;;0.60;0.60;;;;;;;2.68;75.02;100186.09;6099344;23;20457;-86
2022/10/17 04:19:24;;;;;;;0.70;0.70;;;;;;;2.72;74.90;100175.94;6101326;23;20037;-85
2022/10/17 04:21:53;;;;;;;0.85;0.85;;;;;;;2.75;74.58;100187.09;6076776;23;20104;-83
2022/10/17 04:24:20;;;;;;;0.70;0.70;;;;;;;2.80;74.62;100190.09;6098379;23;20541;-84
2022/10/17 04:26:55;;;;;;;0.70;0.70;;;;;;;2.84;74.74;100187.97;6097669;23;20032;-85
2022/10/17 04:29:27;;;;;;;0.70;0.70;;;;;;;2.89;74.46;100182.13;6097140;23;20022;-84
2022/10/17 04:32:04;;;;;;;0.85;0.85;;;;;;;2.94;74.50;100185.13;6098021;23;20028;-85
2022/10/17 04:34:41;;;;;;;0.73;0.73;;;;;;;2.99;74.37;100188.97;6098275;23;20022;-85
2022/10/17 04:37:08;;;;;;;0.70;0.70;;;;;;;3.02;73.90;100175.28;6122910;23;20028;-86
2022/10/17 04:39:36;;;;;;;0.70;0.70;;;;;;;3.08;74.04;100180.97;6074352;23;20022;-85
2022/10/17 04:42:03;;;;;;;0.73;0.73;;;;;;;3.02;74.04;100163.81;6098096;23;20065;-87
2022/10/17 04:44:34;;;;;;;0.70;0.70;;;;;;;3.12;73.82;100172.47;6072048;23;20061;-87
2022/10/17 04:47:01;;;;;;;0.70;0.70;;;;;;;3.16;73.78;100165.78;6123920;23;20022;-88
2022/10/17 04:49:28;;;;;;;0.70;0.70;;;;;;;3.20;73.77;100168.94;6073898;23;20719;-86
2022/10/17 04:52:12;;;;;;;0.70;0.70;;;;;;;3.18;73.19;100160.28;6097836;23;20022;-90
2022/10/17 04:54:47;;;;;;;0.60;0.60;;;;;;;3.24;73.27;100160.44;6099089;23;20528;-88
2022/10/17 04:57:16;;;;;;;0.80;0.80;;;;;;;3.29;73.20;100159.91;6102046;23;20021;-91
2022/10/17 04:59:57;;;;;;;0.70;0.70;;;;;;;3.25;73.18;100146.09;6108066;23;20022;-92
2022/10/17 05:02:46;;;;;;;0.60;0.60;;;;;;;3.33;73.00;100147.91;6106320;23;20101;-91
2022/10/17 05:05:14;;;;;;;0.80;0.80;;;;;;;3.36;72.79;100155.56;6101216;23;20049;-89
2022/10/17 05:07:47;;;;;;;0.70;0.70;;;;;;;3.35;72.51;100137.91;6075795;23;20041;-88
2022/10/17 05:10:20;;;;;;;0.70;0.70;;;;;;;3.53;72.41;100148.38;6079069;23;20052;-89
2022/10/17 05:12:50;;;;;;;0.60;0.60;;;;;;;3.48;72.55;100143.53;6086511;23;20018;-92
2022/10/17 05:15:22;;;;;;;0.85;0.85;;;;;;;3.62;72.07;100149.19;6111772;23;20326;-95
2022/10/17 05:17:58;;;;;;;0.70;0.70;;;;;;;3.68;71.94;100153.84;6163885;23;20026;-90
2022/10/17 05:20:30;;;;;;;0.73;0.73;;;;;;;3.80;71.31;100154.28;6130435;23;20088;-88
2022/10/17 05:23:01;;;;;;;0.70;0.70;;;;;;;3.84;71.48;100155.63;6151401;23;20405;-88
2022/10/17 05:25:33;;;;;;;0.50;0.50;;;;;;;3.84;71.44;100155.63;6151897;23;20036;-88
2022/10/17 05:28:00;;;;;;;0.70;0.70;;;;;;;3.87;71.05;100160.59;6153814;23;20081;-85
2022/10/17 05:30:28;;;;;;;0.60;0.60;;;;;;;3.85;71.46;100152.78;6151882;23;20021;-88
2022/10/17 05:33:04;;;;;;;0.70;0.70;;;;;;;3.88;71.44;100146.28;6153009;23;20529;-87
2022/10/17 05:35:31;;;;;;;0.70;0.70;;;;;;;3.91;71.25;100135.22;6154067;23;20030;-90
2022/10/17 05:38:02;;;;;;;0.60;0.60;;;;;;;4.02;70.98;100144.69;6104755;23;20092;-87
2022/10/17 05:40:33;;;;;;;0.70;0.70;;;;;;;4.10;70.65;100128.63;6174380;23;20100;-87
2022/10/17 05:43:07;;;;;;;0.70;0.70;;;;;;;4.20;70.21;100129.22;6122767;23;20025;-87
2022/10/17 05:45:35;;;;;;;0.65;0.65;;;;;;;4.24;69.87;100114.53;6148207;23;20365;-88
2022/10/17 05:48:12;;;;;;;0.70;0.70;;;;;;;4.44;69.36;100127.44;6150986;23;20196;-90
2022/10/17 05:50:43;;;;;;;0.63;0.63;;;;;;;4.53;69.03;100121.00;6157580;23;20421;-93
2022/10/17 05:53:41;;;;;;;0.73;0.73;;;;;;;4.63;68.51;100128.78;6130159;23;20036;-92
2022/10/17 05:56:22;;;;;;;0.68;0.68;;;;;;;4.55;68.49;100103.78;6084116;23;20220;-86
2022/10/17 05:58:50;;;;;;;0.70;0.70;;;;;;;4.67;68.04;100114.91;6094683;23;20026;-92
2022/10/17 06:01:42;;;;;;;0.60;0.60;;;;;;;4.61;68.09;100082.69;6092814;23;20028;-87
2022/10/17 06:04:09;;;;;;;0.70;0.70;;;;;;;4.80;68.03;100113.47;6093190;23;20120;-88
2022/10/17 06:06:40;;;;;;;0.52;0.52;;;;;;;4.78;67.64;100102.94;6069976;23;20102;-86
2022/10/17 06:09:15;;;;;;;0.60;0.60;;;;;;;4.82;67.33;100090.03;6092994;23;20021;-88
2022/10/17 06:11:47;;;;;;;0.70;0.70;;;;;;;4.89;67.37;100099.03;6067998;23;20033;-87
2022/10/17 06:14:18;;;;;;;0.60;0.60;;;;;;;4.83;67.38;100091.69;6123860;23;20029;-87
2022/10/17 06:16:51;;;;;;;0.70;0.70;;;;;;;4.81;67.49;100091.91;6098385;23;20101;-86
2022/10/17 06:19:18;;;;;;;0.60;0.60;;;;;;;4.88;67.56;100092.00;6100027;23;20030;-85
2022/10/17 06:21:54;;;;;;;0.60;0.60;;;;;;;4.92;67.42;100091.44;6119865;23;20073;-84
2022/10/17 06:24:25;;;;;;;0.60;0.60;;;;;;;4.92;67.08;100107.50;6124829;23;20031;-87
2022/10/17 06:26:53;;;;;;;0.68;0.68;;;;;;;4.82;67.24;100084.69;6103742;23;20025;-86
2022/10/17 06:29:21;;;;;;;0.70;0.70;;;;;;;4.89;67.08;100088.31;6127510;23;20488;-86
2022/10/17 06:31:51;;;;;;;0.65;0.65;;;;;;;4.98;66.80;100097.91;6156305;23;20527;-87
2022/10/17 06:34:21;;;;;;;0.60;0.60;;;;;;;5.05;66.96;100090.81;6175971;23;20021;-85
2022/10/17 06:36:52;;;;;;;0.68;0.68;;;;;;;5.16;66.51;100095.72;6150228;23;20033;-84
2022/10/17 06:39:32;;;;;;;;;;;;;;;5.20;66.44;100094.34;6151915;23;20045;-83
2022/10/17 06:42:17;;;;;;;0.60;0.60;;;;;;;5.27;65.65;100088.28;6151234;23;19931;-86
2022/10/17 06:45:08;;;;;;;0.60;0.60;;;;;;;5.30;65.18;100093.25;6151621;23;20079;-86
2022/10/17 06:47:50;;;;;;;0.60;0.60;;;;;;;5.30;65.88;100075.34;6152300;23;20049;-86
2022/10/17 06:50:35;;;;;;;0.60;0.60;;;;;;;5.38;65.35;100063.72;6154710;23;20068;-85
2022/10/17 06:53:16;;;;;;;0.60;0.60;;;;;;;5.51;64.91;100061.22;6154467;23;20047;-85
2022/10/17 06:55:50;;;;;;;0.70;0.70;;;;;;;5.63;64.72;100058.91;6155416;23;20032;-85
2022/10/17 06:58:38;;;;;;;0.70;0.70;;;;;;;5.80;64.09;100057.69;6153500;23;20022;-85
2022/10/17 07:01:27;;;;;;;0.60;0.60;;;;;;;5.81;64.17;100045.13;6143290;23;20029;-85
2022/10/17 07:03:56;;;;;;;0.60;0.60;;;;;;;5.84;63.61;100063.47;6105266;23;20029;-85
2022/10/17 07:06:24;;;;;;;0.70;0.70;;;;;;;5.90;63.57;100061.91;6104635;23;20338;-85
2022/10/17 07:08:54;;;;;;;0.50;0.50;;;;;;;5.92;63.46;100070.59;6129292;23;20026;-85
2022/10/17 07:11:24;;;;;;;0.65;0.65;;;;;;;5.89;63.80;100063.75;6129931;23;20116;-85
2022/10/17 07:13:51;;;;;;;0.70;0.70;;;;;;;5.84;63.51;100055.44;6105372;23;20048;-85
2022/10/17 07:16:20;;;;;;;0.60;0.60;;;;;;;5.89;63.34;100052.22;6128922;23;20108;-85
2022/10/17 07:18:53;;;;;;;0.60;0.60;;;;;;;5.90;63.40;100062.75;6129617;23;20060;-86
2022/10/17 07:21:21;;;;;;;0.60;0.60;;;;;;;5.86;63.70;100042.69;6129027;23;20059;-84
2022/10/17 07:23:48;;;;;;;0.60;0.60;;;;;;;5.83;63.88;100032.38;6128549;23;20026;-85
2022/10/17 07:26:17;;;;;;;0.60;0.60;;;;;;;5.86;63.82;100040.03;6108108;23;20025;-85
2022/10/17 07:28:52;;;;;;;0.60;0.60;;;;;;;5.85;64.35;100033.03;6156227;23;20361;-84
2022/10/17 07:31:29;;;;;;;0.65;0.65;;;;;;;5.89;64.06;100034.28;6152673;23;20029;-86
2022/10/17 07:34:02;;;;;;;0.70;0.70;;;;;;;5.96;64.00;100051.28;6152689;23;20080;-84
2022/10/17 07:36:32;;;;;;;0.70;0.70;;;;;;;6.06;63.67;100029.56;6152623;23;20369;-86
2022/10/17 07:39:10;;;;;;;0.60;0.60;;;;;;;6.16;63.01;100040.78;6177673;23;20067;-86
2022/10/17 07:41:37;;;;;;;0.60;0.60;;;;;;;6.17;63.38;100055.03;6152715;23;20021;-85
2022/10/17 07:44:08;;;;;;;0.60;0.60;;;;;;;6.16;62.91;100040.78;6177084;23;20073;-86
2022/10/17 07:46:47;;;;;;;0.50;0.50;;;;;;;6.13;63.24;100024.25;6154920;23;20045;-85
2022/10/17 07:49:18;;;;;;;0.60;0.60;;;;;;;6.13;63.30;100026.94;6176493;23;20049;-84
2022/10/17 07:51:46;;;;;;;0.60;0.60;;;;;;;6.13;63.61;100034.97;6177932;23;20105;-87
2022/10/17 07:54:13;;;;;;;0.60;0.60;;;;;;;6.15;63.58;100028.41;6153633;23;20023;-85
2022/10/17 07:56:40;;;;;;;0.65;0.65;;;;;;;6.19;63.57;100039.59;6154353;23;20025;-86
2022/10/17 07:59:08;;;;;;;0.57;0.57;;;;;;;6.19;63.56;100050.31;6153535;23;20022;-85
2022/10/17 08:01:35;;;;;;;0.60;0.60;;;;;;;6.17;64.02;100031.72;6128494;23;20032;-85
2022/10/17 08:04:02;;;;;;;0.60;0.60;;;;;;;6.17;63.62;100037.09;6157197;23;20468;-87
2022/10/17 08:06:32;;;;;;;0.60;0.60;;;;;;;6.10;63.92;100030.00;6154375;23;20453;-85
2022/10/17 08:09:02;;;;;;;0.60;0.60;;;;;;;6.10;64.10;100013.91;6153936;23;20033;-85
2022/10/17 08:11:31;;;;;;;0.55;0.55;;;;;;;6.15;63.86;100022.22;6154264;23;20022;-85
2022/10/17 08:14:00;;;;;;;0.60;0.60;;;;;;;6.18;63.74;100028.03;6177546;23;20044;-86
2022/10/17 08:16:27;;;;;;;0.60;0.60;;;;;;;6.20;64.02;100035.88;6128254;23;20072;-87
2022/10/17 08:19:03;;;;;;;0.60;0.60;;;;;;;6.19;63.88;100020.81;6154078;23;20109;-86
2022/10/17 08:21:30;;;;;;;0.60;0.60;;;;;;;6.22;63.68;100010.53;6155057;23;20025;-85
2022/10/17 08:23:57;;;;;;;0.57;0.57;;;;;;;6.28;63.61;99995.56;6154677;23;20113;-83
2022/10/17 08:26:29;;;;;;;0.50;0.50;;;;;;;6.31;63.90;99997.03;6155382;23;20057;-85
2022/10/17 08:28:56;;;;;;;0.60;0.60;;;;;;;6.30;63.69;100004.22;6153293;23;20025;-85
2022/10/17 08:31:26;;;;;;;0.60;0.60;;;;;;;6.31;63.59;100000.53;6153671;23;20022;-85
2022/10/17 08:33:53;;;;;;;0.60;0.60;;;;;;;6.31;63.79;99997.03;6153901;23;20017;-85
2022/10/17 08:36:20;;;;;;;0.52;0.52;;;;;;;6.32;64.07;100001.34;6153063;23;20025;-85
2022/10/17 08:38:47;;;;;;;0.60;0.60;;;;;;;6.27;64.57;100007.28;6154052;23;20025;-86
2022/10/17 08:41:22;;;;;;;0.50;0.50;;;;;;;6.19;65.54;99996.69;6154133;23;20084;-85
2022/10/17 08:44:15;;;;;;;0.50;0.50;;;;;;;6.04;66.88;100021.69;6154216;23;20033;-83
2022/10/17 08:46:45;;;;;;;0.60;0.60;;;;;;;5.95;67.65;100025.53;6154300;23;20410;-85
2022/10/17 08:49:18;;;;;;;0.50;0.50;;;;;;;5.94;68.21;100015.00;6153687;23;20022;-85
2022/10/17 08:51:50;;;;;;;;;;;;;;;5.97;68.88;100030.69;6151835;23;20388;-86
2022/10/17 08:54:50;;;;;;;0.60;0.60;;;;;;;5.98;69.44;100045.75;6186347;23;19971;-89
2022/10/17 08:57:17;;;;;;;0.60;0.60;;;;;;;5.84;70.37;100025.97;6164287;23;20029;-88
2022/10/17 08:59:50;;;;;;;0.60;0.60;;;;;;;5.72;71.21;100030.16;6162463;23;20029;-86
2022/10/17 09:02:52;;;;;;;0.60;0.60;;;;;;;5.71;72.31;100045.41;6133641;23;20026;-89
2022/10/17 09:05:37;;;;;;;0.60;0.60;;;;;;;5.58;73.43;100019.28;6103615;23;20056;-88
2022/10/17 09:08:35;;;;;;;0.60;0.60;;;;;;;5.26;76.36;100033.06;6180713;23;20053;-87
2022/10/17 09:11:32;;;;;;;0.60;0.60;;;;;;;4.84;80.10;100038.03;6134027;23;20052;-90
2022/10/17 09:14:02;;;;;;;0.70;0.70;;;;;;;4.67;82.20;100033.84;6152364;23;20092;-87
2022/10/17 09:16:44;;;;;;;0.55;0.55;;;;;;;4.60;83.48;100035.56;6149566;23;20029;-88
2022/10/17 09:19:23;;;;;;;0.60;0.60;;;;;;;4.52;84.58;100031.97;6147551;23;20032;-88
2022/10/17 09:21:56;;;;;;;0.60;0.60;;;;;;;4.46;86.16;100040.72;6124731;23;20033;-88
2022/10/17 09:24:36;;;;;;;0.70;0.70;;;;;;;4.28;87.06;100019.63;6099358;23;20368;-88
2022/10/17 09:27:05;;;;;;;0.60;0.60;;;;;;;4.22;88.57;99998.97;6173030;23;20021;-89
2022/10/17 09:29:35;;;;;;;0.68;0.68;;;;;;;4.24;89.89;100020.16;6153769;23;20551;-85
2022/10/17 09:32:23;;;;;;;0.60;0.60;;;;;;;4.11;90.60;100002.06;6148580;23;20021;-87
2022/10/17 09:34:53;;;;;;;0.60;0.60;;;;;;;4.20;91.16;100011.66;6122990;23;20028;-87
2022/10/17 09:37:29;;;;;;;0.70;0.70;;;;;;;4.17;91.72;100011.19;6150864;23;20025;-89
2022/10/17 09:39:57;;;;;;;0.63;0.63;;;;;;;4.06;92.36;100009.78;6148272;23;20021;-86
2022/10/17 09:42:29;;;;;;;0.70;0.70;;;;;;;4.17;92.75;100038.75;6103902;23;20103;-88
2022/10/17 09:45:18;;;;;;;0.60;0.60;;;;;;;4.16;93.54;100009.53;6176010;23;20028;-87
2022/10/17 09:47:54;;;;;;;0.75;0.75;;;;;;;4.23;94.15;100005.97;6188502;23;20025;-87
2022/10/17 09:50:30;;;;;;;0.60;0.60;;;;;;;4.21;94.49;99986.63;6160034;23;20032;-87
2022/10/17 09:53:09;;;;;;;0.80;0.80;;;;;;;4.29;94.45;99977.69;6151222;23;20673;-86
2022/10/17 09:55:42;;;;;;;0.70;0.70;;;;;;;4.26;94.85;99988.75;6148428;23;20025;-86
2022/10/17 09:58:09;;;;;;;0.63;0.63;;;;;;;4.22;94.86;99971.41;6075454;23;20080;-87
2022/10/17 10:00:41;;;;;;;0.60;0.60;;;;;;;4.26;95.06;99975.41;6174410;23;20449;-86
2022/10/17 10:03:23;;;;;;;0.70;0.70;;;;;;;4.31;95.01;99992.56;6150227;23;20420;-91
2022/10/17 10:06:15;;;;;;;0.70;0.70;;;;;;;4.41;95.18;99991.47;6129180;23;20027;-94
2022/10/17 10:08:57;;;;;;;0.70;0.70;;;;;;;4.63;94.51;99977.22;6116592;23;20029;-88
2022/10/17 10:11:49;;;;;;;0.70;0.70;;;;;;;4.74;93.99;99966.09;6121268;23;20025;-88
2022/10/17 10:14:29;;;;;;;0.70;0.70;;;;;;;4.85;93.41;99977.34;6121207;23;20026;-91
2022/10/17 10:16:56;;;;;;;0.70;0.70;;;;;;;4.83;92.10;99947.25;6116408;23;20036;-85
2022/10/17 10:19:33;;;;;;;0.60;0.60;;;;;;;4.87;91.66;99956.59;6120112;23;20028;-91
2022/10/17 10:22:04;;;;;;;0.60;0.60;;;;;;;4.85;91.43;99950.59;6096858;23;20159;-88
2022/10/17 10:24:31;;;;;;;0.70;0.70;;;;;;;4.85;91.39;99961.28;6100805;23;20026;-92
2022/10/17 10:27:01;;;;;;;0.70;0.70;;;;;;;4.83;91.43;99947.25;6125291;23;20045;-88
2022/10/17 10:29:31;;;;;;;0.70;0.70;;;;;;;4.87;91.57;99964.63;6123578;23;20360;-88
2022/10/17 10:32:29;;;;;;;0.60;0.60;;;;;;;4.86;91.25;99941.53;6125178;23;20092;-89
2022/10/17 10:35:18;;;;;;;0.70;0.70;;;;;;;4.90;91.31;99940.16;6123592;23;20021;-90
2022/10/17 10:37:52;;;;;;;0.70;0.70;;;;;;;4.93;91.09;99937.94;6126738;23;20030;-89
2022/10/17 10:40:46;;;;;;;0.60;0.60;;;;;;;4.94;90.50;99954.84;6154676;23;20021;-92
2022/10/17 10:43:32;;;;;;;0.60;0.60;;;;;;;4.91;90.63;99925.78;6155763;23;20021;-91
2022/10/17 10:46:00;;;;;;;0.60;0.60;;;;;;;4.92;90.54;99930.13;6156271;23;20084;-91
2022/10/17 10:48:35;;;;;;;0.70;0.70;;;;;;;4.97;90.81;99939.25;6155982;23;20026;-91
2022/10/17 10:51:12;;;;;;;0.60;0.60;;;;;;;5.02;90.88;99938.69;6180343;23;20330;-84
2022/10/17 10:53:43;;;;;;;0.70;0.70;;;;;;;5.03;90.97;99943.00;6152488;23;20025;-87
2022/10/17 10:56:16;;;;;;;0.70;0.70;;;;;;;5.04;90.84;99939.34;6152221;23;20022;-89
2022/10/17 10:58:43;;;;;;;0.70;0.70;;;;;;;5.05;90.89;99922.25;6151674;23;20721;-89
2022/10/17 11:01:49;;;;;;;0.70;0.70;;;;;;;5.06;90.84;99937.28;6152471;23;20025;-88
2022/10/17 11:04:28;;;;;;;;;;;;;;;5.09;90.76;99936.94;6146134;23;20613;-89
2022/10/17 11:07:24;;;;;;;0.70;0.70;;;;;;;5.09;90.63;99915.53;6153553;23;19931;-89
2022/10/17 11:10:07;;;;;;;0.60;0.60;;;;;;;5.13;90.91;99921.34;6158122;23;20082;-88
2022/10/17 11:12:41;;;;;;;0.60;0.60;;;;;;;5.13;90.78;99910.63;6165900;23;20041;-91
2022/10/17 11:15:24;;;;;;;0.70;0.70;;;;;;;5.16;90.88;99910.25;6132817;23;20033;-89
2022/10/17 11:17:58;;;;;;;0.60;0.60;;;;;;;5.14;91.18;99897.06;6156793;23;20025;-88
2022/10/17 11:20:28;;;;;;;;;;;;;;;5.14;90.97;99901.56;6152624;23;20084;-87
2022/10/17 11:23:11;;;;;;;0.70;0.70;;;;;;;5.13;91.12;99899.94;6153781;23;20031;-84
2022/10/17 11:25:41;;;;;;;0.68;0.68;;;;;;;5.11;91.51;99905.44;6158520;23;20022;-91
2022/10/17 11:28:18;;;;;;;0.60;0.60;;;;;;;5.15;91.81;99893.38;6134673;23;20025;-89
2022/10/17 11:30:55;;;;;;;0.68;0.68;;;;;;;5.17;91.97;99891.34;6153287;23;20025;-88
2022/10/17 11:33:44;;;;;;;0.60;0.60;;;;;;;5.24;91.83;99893.25;6175326;23;20025;-87
2022/10/17 11:36:13;;;;;;;0.60;0.60;;;;;;;5.22;91.77;99883.56;6154634;23;20093;-88
2022/10/17 11:39:05;;;;;;;0.60;0.60;;;;;;;5.21;91.86;99875.72;6154548;23;20025;-86
2022/10/17 11:41:40;;;;;;;0.60;0.60;;;;;;;5.20;92.00;99895.47;6153976;23;20018;-84
2022/10/17 11:44:17;;;;;;;0.77;0.77;;;;;;;5.21;92.36;99889.94;6153153;23;20021;-85
2022/10/17 11:46:54;;;;;;;0.70;0.70;;;;;;;5.20;92.15;99885.59;6158522;23;20716;-88
2022/10/17 11:49:24;;;;;;;0.60;0.60;;;;;;;5.24;92.46;99882.53;6158776;23;20029;-83
2022/10/17 11:52:12;;;;;;;0.55;0.55;;;;;;;5.28;92.72;99891.88;6153638;23;20033;-88
2022/10/17 11:55:10;;;;;;;0.70;0.70;;;;;;;5.25;92.72;99882.38;6157886;23;20376;-86
2022/10/17 11:57:50;;;;;;;0.70;0.70;;;;;;;5.28;93.21;99876.63;6109030;23;20356;-86
2022/10/17 12:00:34;;;;;;;0.68;0.68;;;;;;;5.34;93.18;99869.69;6132304;23;20028;-87
2022/10/17 12:03:43;;;;;;;0.65;0.65;;;;;;;5.33;93.12;99882.25;6130854;23;20365;-86
2022/10/17 12:06:24;;;;;;;0.60;0.60;;;;;;;5.31;93.31;99864.72;6146928;23;20057;-87
2022/10/17 12:09:04;;;;;;;0.60;0.60;;;;;;;5.33;93.66;99855.47;6158000;23;20076;-84
2022/10/17 12:11:53;;;;;;;0.77;0.77;;;;;;;5.31;93.89;99860.19;6156561;23;20045;-91